Time;durP1;ratioP1;P1;durP2;ratioP2;P2;SDS_P1;SDS_P2;PMS_P1;PMS_P2;Temp;Humidity;BMP_temperature;BMP_pressure;BME280_temperature;BME280_humidity;BME280_pressure;Samples;Min_cycle;Max_cycle;Signal;HPM_P1;HPM_P2
2021/06/10 00:00:18;;;;;;;5.90;2.97;;;;;;;20.31;46.41;102036.19;5051324;28;20053;-47
2021/06/10 00:02:47;;;;;;;5.43;2.85;;;;;;;20.35;46.73;102034.47;5051785;28;20110;-47
2021/06/10 00:05:17;;;;;;;5.15;3.22;;;;;;;20.36;47.26;102033.31;5051895;28;20040;-48
2021/06/10 00:07:45;;;;;;;5.65;2.90;;;;;;;20.35;47.55;102023.38;5050821;28;20045;-51
2021/06/10 00:10:15;;;;;;;4.78;2.80;;;;;;;20.33;47.84;102024.81;5051739;28;20045;-49
2021/06/10 00:12:44;;;;;;;5.13;3.05;;;;;;;20.28;48.20;102034.03;5051677;28;20126;-49
2021/06/10 00:15:17;;;;;;;4.82;3.17;;;;;;;20.29;48.05;102021.00;5051146;28;20053;-49
2021/06/10 00:17:45;;;;;;;5.07;3.13;;;;;;;20.29;48.36;102021.00;5054323;28;20447;-49
2021/06/10 00:20:14;;;;;;;8.40;3.55;;;;;;;20.29;48.22;102024.59;5055803;28;20150;-48
2021/06/10 00:22:42;;;;;;;6.45;3.35;;;;;;;20.26;48.36;102027.97;5055861;28;20091;-46
2021/06/10 00:25:11;;;;;;;7.35;3.47;;;;;;;20.23;48.56;102031.38;5055483;28;20040;-49
2021/06/10 00:27:39;;;;;;;6.70;3.45;;;;;;;20.20;48.59;102031.94;5055877;28;20041;-49
2021/06/10 00:30:17;;;;;;;8.55;3.70;;;;;;;20.19;48.75;102035.84;5055116;28;20033;-48
2021/06/10 00:32:49;;;;;;;7.20;3.67;;;;;;;20.17;48.75;102030.63;5055677;28;20041;-49
2021/06/10 00:35:18;;;;;;;5.78;3.75;;;;;;;20.18;48.62;102034.22;5055732;28;20037;-49
2021/06/10 00:37:46;;;;;;;6.47;3.78;;;;;;;20.15;48.85;102043.13;5055348;28;20571;-48
2021/06/10 00:40:15;;;;;;;7.03;3.22;;;;;;;20.07;49.07;102041.06;5055483;28;20040;-48
2021/06/10 00:42:43;;;;;;;4.57;3.42;;;;;;;20.04;48.78;102033.38;5055257;28;20041;-47
2021/06/10 00:45:14;;;;;;;6.97;3.42;;;;;;;19.97;48.62;102033.75;5054738;28;20248;-50
2021/06/10 00:47:43;;;;;;;6.05;3.53;;;;;;;19.88;49.17;102030.84;5054069;28;20044;-47
2021/06/10 00:50:11;;;;;;;7.60;3.63;;;;;;;19.79;49.51;102021.56;5054444;28;20079;-49
2021/06/10 00:52:40;;;;;;;5.38;3.55;;;;;;;19.65;50.13;102021.50;5055358;28;20080;-47
2021/06/10 00:55:08;;;;;;;5.72;3.47;;;;;;;19.60;50.46;102024.31;5055041;28;20388;-49
2021/06/10 00:57:36;;;;;;;4.97;3.53;;;;;;;19.61;50.39;102020.47;5054863;28;20072;-46
2021/06/10 01:00:07;;;;;;;6.93;3.55;;;;;;;19.64;50.14;102021.81;5054875;28;20040;-49
2021/06/10 01:02:34;;;;;;;6.55;3.88;;;;;;;19.61;50.46;102016.88;5053421;28;20094;-50
2021/06/10 01:05:03;;;;;;;6.18;3.40;;;;;;;19.57;50.41;102017.44;5054824;28;20081;-48
2021/06/10 01:07:41;;;;;;;5.95;3.70;;;;;;;19.55;50.30;102025.25;5054876;28;20033;-49
2021/06/10 01:10:09;;;;;;;6.43;3.30;;;;;;;19.58;50.51;102026.59;5070298;28;20467;-48
2021/06/10 01:12:57;;;;;;;6.85;3.42;;;;;;;19.58;50.48;102029.34;5054134;28;20064;-46
2021/06/10 01:15:28;;;;;;;6.63;3.80;;;;;;;19.53;50.87;102024.72;5054513;28;20077;-47
2021/06/10 01:17:55;;;;;;;6.10;3.50;;;;;;;19.53;50.87;102027.50;5054758;28;20041;-48
2021/06/10 01:20:26;;;;;;;5.85;3.75;;;;;;;19.55;50.66;102025.25;5054525;28;20080;-49
2021/06/10 01:22:57;;;;;;;6.35;3.53;;;;;;;19.59;50.65;102023.50;5054350;28;20091;-48
2021/06/10 01:25:33;;;;;;;7.82;3.67;;;;;;;19.62;50.63;102027.63;5054700;28;20041;-48
2021/06/10 01:28:11;;;;;;;6.60;3.97;;;;;;;19.64;50.46;102027.31;5053193;28;20095;-46
2021/06/10 01:30:45;;;;;;;7.57;3.78;;;;;;;19.57;50.55;102025.75;5069942;28;20049;-48
2021/06/10 01:33:18;;;;;;;8.57;4.25;;;;;;;19.51;50.88;102026.97;5054483;28;20579;-48
2021/06/10 01:35:51;;;;;;;5.88;3.90;;;;;;;19.49;50.69;102022.84;5054087;28;20064;-48
2021/06/10 01:38:20;;;;;;;7.60;3.75;;;;;;;19.48;50.65;102022.03;5054117;28;20411;-48
2021/06/10 01:40:49;;;;;;;10.55;4.63;;;;;;;19.51;50.41;102032.50;5054080;28;20495;-50
2021/06/10 01:43:18;;;;;;;5.32;3.65;;;;;;;19.44;50.82;102032.03;5053914;28;20091;-46
2021/06/10 01:45:50;;;;;;;5.63;3.45;;;;;;;19.42;51.11;102030.69;5054102;28;20080;-51
2021/06/10 01:48:19;;;;;;;7.05;3.88;;;;;;;19.42;51.16;102028.75;5054158;28;20090;-49
2021/06/10 01:50:51;;;;;;;8.23;3.55;;;;;;;19.44;50.93;102015.47;5068898;28;20079;-51
2021/06/10 01:53:20;;;;;;;9.05;4.10;;;;;;;19.42;51.22;102016.88;5069397;28;20041;-49
2021/06/10 01:55:48;;;;;;;7.65;3.80;;;;;;;19.38;51.06;102019.41;5069030;28;20053;-47
2021/06/10 01:58:17;;;;;;;9.30;4.22;;;;;;;19.40;51.09;102014.41;5069042;28;20045;-50
2021/06/10 02:00:46;;;;;;;9.23;4.30;;;;;;;19.42;50.94;102014.13;5069497;28;20072;-49
2021/06/10 02:03:14;;;;;;;6.78;4.18;;;;;;;19.46;50.64;102018.75;5053998;28;20059;-48
2021/06/10 02:05:42;;;;;;;6.35;4.00;;;;;;;19.49;50.85;102017.31;5053371;28;20073;-49
2021/06/10 02:08:12;;;;;;;6.68;3.88;;;;;;;19.49;50.27;102012.63;5053986;28;20487;-48
2021/06/10 02:10:42;;;;;;;6.95;4.13;;;;;;;19.48;50.27;102013.75;5052746;28;20072;-48
2021/06/10 02:13:10;;;;;;;8.27;4.50;;;;;;;19.47;50.40;102016.81;5069226;28;20048;-49
2021/06/10 02:15:38;;;;;;;9.52;4.43;;;;;;;19.43;50.24;102013.78;5053262;28;20053;-49
2021/06/10 02:18:06;;;;;;;7.05;4.00;;;;;;;19.39;50.54;102011.97;5069103;28;20049;-49
2021/06/10 02:20:33;;;;;;;7.20;3.90;;;;;;;19.34;50.85;102016.44;5053132;28;20069;-49
2021/06/10 02:23:01;;;;;;;6.45;3.83;;;;;;;19.26;51.49;102014.31;5053333;28;20053;-45
2021/06/10 02:25:29;;;;;;;6.78;3.70;;;;;;;19.09;51.96;102005.72;5053216;28;20087;-49
2021/06/10 02:27:56;;;;;;;7.32;3.90;;;;;;;19.01;52.38;102001.69;5039316;28;20446;-48
2021/06/10 02:30:24;;;;;;;7.55;4.10;;;;;;;18.98;52.48;102002.28;5053483;28;20044;-48
2021/06/10 02:32:52;;;;;;;7.07;3.97;;;;;;;18.87;52.81;102004.34;5053236;28;20052;-47
2021/06/10 02:35:19;;;;;;;6.03;3.65;;;;;;;18.81;53.24;102012.97;5052982;28;20041;-48
2021/06/10 02:37:50;;;;;;;6.20;3.25;;;;;;;18.86;52.93;102004.66;5053431;28;20072;-46
2021/06/10 02:40:27;;;;;;;7.50;3.63;;;;;;;18.89;52.76;102001.28;5052257;28;20047;-47
2021/06/10 02:42:59;;;;;;;6.57;3.35;;;;;;;18.87;52.99;102003.53;5068511;28;20045;-47
2021/06/10 02:45:27;;;;;;;5.03;3.25;;;;;;;18.85;53.38;101995.53;5053224;28;20495;-49
2021/06/10 02:47:56;;;;;;;5.53;3.25;;;;;;;18.81;53.67;102002.78;5067914;28;20468;-46
2021/06/10 02:50:25;;;;;;;4.85;3.10;;;;;;;18.81;53.68;101996.41;5067918;28;20091;-48
2021/06/10 02:52:53;;;;;;;6.38;3.70;;;;;;;18.83;53.70;101996.94;5052477;28;20041;-47
2021/06/10 02:55:21;;;;;;;5.25;3.10;;;;;;;18.87;53.55;101995.22;5067962;28;20073;-45
2021/06/10 02:57:53;;;;;;;6.57;3.88;;;;;;;18.87;53.23;101990.53;5052821;28;20068;-49
2021/06/10 03:00:27;;;;;;;5.30;3.13;;;;;;;18.84;53.28;101984.78;5051609;28;20119;-47
2021/06/10 03:02:55;;;;;;;6.28;3.83;;;;;;;18.82;53.31;101987.03;5051705;28;20182;-45
2021/06/10 03:05:27;;;;;;;5.50;3.90;;;;;;;18.76;53.56;101990.91;5051709;28;20048;-46
2021/06/10 03:07:55;;;;;;;9.82;4.30;;;;;;;18.69;53.76;101981.06;5067722;28;20466;-45
2021/06/10 03:10:30;;;;;;;8.18;3.85;;;;;;;18.67;53.71;101990.75;5051909;28;20068;-46
2021/06/10 03:12:57;;;;;;;7.13;3.90;;;;;;;18.57;54.34;101985.34;5067647;28;20573;-45
2021/06/10 03:15:26;;;;;;;9.05;4.15;;;;;;;18.52;54.47;101989.00;5068332;28;20087;-46
2021/06/10 03:17:56;;;;;;;8.98;4.45;;;;;;;18.45;54.65;101974.72;5069160;28;20452;-45
2021/06/10 03:20:23;;;;;;;6.47;3.80;;;;;;;18.43;55.07;101979.72;5054026;28;20075;-49
2021/06/10 03:22:52;;;;;;;6.00;4.15;;;;;;;18.39;55.39;101971.19;5068973;28;20032;-48
2021/06/10 03:25:21;;;;;;;7.97;3.95;;;;;;;18.44;55.42;101975.84;5052469;28;20082;-46
2021/06/10 03:27:50;;;;;;;6.95;3.70;;;;;;;18.55;55.14;101971.03;5067575;28;20045;-52
2021/06/10 03:30:18;;;;;;;5.50;3.75;;;;;;;18.65;54.88;101966.19;5067982;28;20045;-47
2021/06/10 03:32:48;;;;;;;6.57;4.00;;;;;;;18.72;54.63;101968.63;5052527;28;20065;-49
2021/06/10 03:35:16;;;;;;;6.55;3.83;;;;;;;18.74;54.56;101969.97;5052431;28;20049;-49
2021/06/10 03:37:44;;;;;;;5.80;3.70;;;;;;;18.78;54.36;101963.88;5051517;28;20041;-50
2021/06/10 03:40:12;;;;;;;6.65;3.92;;;;;;;18.85;54.13;101970.66;5052055;28;20076;-47
2021/06/10 03:42:41;;;;;;;10.02;4.82;;;;;;;18.88;53.79;101967.34;5067276;28;20545;-52
2021/06/10 03:45:09;;;;;;;6.75;4.57;;;;;;;18.90;53.78;101965.06;5052163;28;20443;-50
2021/06/10 03:47:37;;;;;;;6.97;4.30;;;;;;;18.96;53.42;101970.56;5052250;28;20061;-45
2021/06/10 03:50:08;;;;;;;7.13;3.60;;;;;;;18.98;53.52;101969.13;5052308;28;20091;-47
2021/06/10 03:52:36;;;;;;;10.43;4.43;;;;;;;18.99;53.53;101959.72;5056081;28;20037;-44
2021/06/10 03:55:05;;;;;;;9.32;3.88;;;;;;;19.03;53.42;101955.25;5056560;28;20518;-47
2021/06/10 03:57:34;;;;;;;9.00;3.97;;;;;;;19.07;53.47;101958.22;5056448;28;20081;-46
2021/06/10 04:00:04;;;;;;;5.43;3.88;;;;;;;19.04;53.12;101962.41;5056081;28;20095;-48
2021/06/10 04:02:36;;;;;;;7.55;4.25;;;;;;;19.04;53.22;101967.13;5056249;28;20494;-46
2021/06/10 04:05:04;;;;;;;8.43;4.32;;;;;;;19.05;53.10;101966.81;5055880;28;20067;-46
2021/06/10 04:07:32;;;;;;;9.82;4.82;;;;;;;19.04;53.12;101976.22;5055482;28;20053;-44
2021/06/10 04:10:00;;;;;;;6.65;4.22;;;;;;;19.07;53.06;101969.28;5071140;28;20075;-49
2021/06/10 04:12:27;;;;;;;7.93;4.60;;;;;;;19.06;52.85;101975.94;5055615;28;20060;-47
2021/06/10 04:14:55;;;;;;;11.20;5.30;;;;;;;19.05;52.98;101972.34;5055737;28;20049;-50
2021/06/10 04:17:23;;;;;;;6.28;4.20;;;;;;;19.04;53.08;101973.47;5055604;28;20048;-45
2021/06/10 04:19:50;;;;;;;8.73;4.63;;;;;;;19.06;52.98;101976.75;5055587;28;20121;-51
2021/06/10 04:22:18;;;;;;;7.57;4.47;;;;;;;19.07;53.53;101963.75;5054984;28;20392;-49
2021/06/10 04:24:46;;;;;;;7.25;3.90;;;;;;;19.13;53.35;101960.63;5055786;28;20098;-53
2021/06/10 04:27:13;;;;;;;7.20;4.43;;;;;;;19.28;53.24;101956.00;5055369;28;20040;-54
2021/06/10 04:29:41;;;;;;;7.63;5.32;;;;;;;19.31;52.80;101963.69;5055690;28;20045;-51
2021/06/10 04:32:09;;;;;;;10.68;5.05;;;;;;;19.26;52.81;101963.75;5055414;28;20449;-49
2021/06/10 04:34:36;;;;;;;9.07;5.35;;;;;;;19.21;52.85;101967.41;5054842;28;20045;-50
2021/06/10 04:37:04;;;;;;;9.95;5.82;;;;;;;19.14;52.88;101962.25;5054904;28;20102;-49
2021/06/10 04:39:33;;;;;;;9.98;6.05;;;;;;;19.10;53.30;101963.19;5055384;28;20075;-50
2021/06/10 04:42:00;;;;;;;9.70;6.10;;;;;;;19.06;53.56;101965.69;5055379;28;20114;-53
2021/06/10 04:44:28;;;;;;;11.15;6.35;;;;;;;18.98;53.74;101962.75;5056217;28;20431;-49
2021/06/10 04:46:56;;;;;;;9.35;5.60;;;;;;;19.01;53.93;101965.78;5055374;28;20071;-49
2021/06/10 04:49:23;;;;;;;9.60;6.20;;;;;;;19.05;53.96;101961.31;5054476;28;20095;-52
2021/06/10 04:51:51;;;;;;;10.40;5.90;;;;;;;19.08;53.87;101957.94;5054163;28;20115;-51
2021/06/10 04:54:20;;;;;;;11.30;6.38;;;;;;;19.07;53.93;101964.59;5054940;28;20384;-51
2021/06/10 04:56:47;;;;;;;10.70;5.70;;;;;;;19.10;53.95;101964.00;5054678;28;20041;-49
2021/06/10 04:59:15;;;;;;;8.57;5.75;;;;;;;19.14;53.96;101967.78;5054872;28;20036;-49
2021/06/10 05:01:43;;;;;;;10.90;5.93;;;;;;;19.22;54.04;101973.75;5054571;28;20455;-50
2021/06/10 05:04:11;;;;;;;9.75;6.30;;;;;;;19.25;54.05;101975.94;5053820;28;20044;-49
2021/06/10 05:06:38;;;;;;;10.35;6.65;;;;;;;19.33;53.90;101964.22;5054554;28;20060;-49
2021/06/10 05:09:06;;;;;;;10.20;6.68;;;;;;;19.34;53.91;101954.81;5054860;28;20064;-51
2021/06/10 05:11:33;;;;;;;9.90;6.35;;;;;;;19.30;53.97;101960.09;5054445;28;20123;-49
2021/06/10 05:14:01;;;;;;;11.40;6.00;;;;;;;19.35;54.00;101956.44;5054545;28;20037;-51
2021/06/10 05:16:30;;;;;;;13.43;6.60;;;;;;;19.37;54.03;101959.72;5054489;28;20053;-49
2021/06/10 05:18:58;;;;;;;10.57;6.45;;;;;;;19.39;54.10;101962.22;5053751;28;20132;-49
2021/06/10 05:21:25;;;;;;;9.45;6.60;;;;;;;19.38;54.17;101961.38;5054279;28;20045;-50
2021/06/10 05:23:53;;;;;;;13.50;7.32;;;;;;;19.33;54.53;101975.25;5054537;28;20079;-50
2021/06/10 05:26:21;;;;;;;10.38;6.93;;;;;;;19.30;54.42;101984.16;5054667;28;20043;-50
2021/06/10 05:28:50;;;;;;;10.65;6.22;;;;;;;19.33;54.19;101981.59;5054463;28;20533;-50
2021/06/10 05:31:19;;;;;;;12.52;7.55;;;;;;;19.40;54.20;101974.91;5053941;28;20037;-49
2021/06/10 05:33:47;;;;;;;9.60;6.78;;;;;;;19.45;53.97;101978.38;5053833;28;20044;-53
2021/06/10 05:36:14;;;;;;;12.25;6.90;;;;;;;19.49;53.92;101973.91;5054122;28;20072;-49
2021/06/10 05:38:42;;;;;;;8.98;6.32;;;;;;;19.51;53.78;101976.38;5054216;28;20098;-50
2021/06/10 05:41:10;;;;;;;11.57;7.20;;;;;;;19.54;53.63;101971.06;5053941;28;20403;-49
2021/06/10 05:43:37;;;;;;;10.48;6.70;;;;;;;19.53;54.24;101974.97;5053838;28;20053;-50
2021/06/10 05:46:05;;;;;;;13.00;6.72;;;;;;;19.50;53.52;101975.53;5054100;28;20045;-51
2021/06/10 05:48:33;;;;;;;11.68;6.45;;;;;;;19.48;53.61;101977.81;5053736;28;20049;-51
2021/06/10 05:51:01;;;;;;;11.10;6.85;;;;;;;19.54;53.53;101982.13;5053586;28;20060;-50
2021/06/10 05:53:29;;;;;;;11.63;7.57;;;;;;;19.55;52.71;101989.31;5054241;28;20060;-50
2021/06/10 05:55:57;;;;;;;13.63;6.50;;;;;;;19.53;52.56;101986.03;5052851;28;20041;-48
2021/06/10 05:58:24;;;;;;;12.48;8.43;;;;;;;19.49;52.16;101986.91;5053733;28;20091;-49
2021/06/10 06:00:52;;;;;;;11.25;6.57;;;;;;;19.48;52.25;101985.25;5053619;28;20099;-48
2021/06/10 06:03:20;;;;;;;14.80;7.70;;;;;;;19.53;51.94;101994.31;5053254;28;20056;-48
2021/06/10 06:05:47;;;;;;;11.25;7.32;;;;;;;19.49;50.74;101984.97;5053572;28;20085;-51
2021/06/10 06:08:16;;;;;;;8.43;5.05;;;;;;;19.53;49.85;102002.59;5053601;28;20048;-49
2021/06/10 06:10:47;;;;;;;10.70;5.32;;;;;;;19.56;48.17;101995.66;5053379;28;20033;-49
2021/06/10 06:13:16;;;;;;;10.18;5.57;;;;;;;19.56;48.27;101990.94;5053780;28;20077;-53
2021/06/10 06:15:44;;;;;;;9.32;4.95;;;;;;;19.64;47.97;101991.38;5053232;28;20049;-53
2021/06/10 06:18:12;;;;;;;9.40;5.45;;;;;;;19.65;47.58;101984.72;5053306;28;20045;-53
2021/06/10 06:20:40;;;;;;;9.20;5.10;;;;;;;19.63;45.24;101989.75;5068574;28;20091;-52
2021/06/10 06:23:08;;;;;;;9.85;5.50;;;;;;;19.62;45.39;101991.66;5053851;28;20053;-53
2021/06/10 06:25:36;;;;;;;9.60;5.60;;;;;;;19.63;46.13;101992.53;5053613;28;20048;-55
2021/06/10 06:28:03;;;;;;;10.07;6.03;;;;;;;19.66;45.88;101989.97;5053227;28;20041;-49
2021/06/10 06:30:31;;;;;;;9.52;5.47;;;;;;;19.68;45.88;101993.28;5053413;28;20099;-50
2021/06/10 06:32:59;;;;;;;7.43;4.85;;;;;;;19.71;45.75;101992.66;5052769;28;20069;-51
2021/06/10 06:35:26;;;;;;;6.80;4.22;;;;;;;19.77;46.63;101985.94;5053177;28;20098;-54
2021/06/10 06:37:54;;;;;;;7.28;4.50;;;;;;;19.81;46.32;101986.16;5053812;28;20037;-54
2021/06/10 06:40:26;;;;;;;9.68;5.40;;;;;;;19.83;45.67;101988.63;5053088;28;20545;-53
2021/06/10 06:42:54;;;;;;;8.45;5.35;;;;;;;19.84;46.23;101999.38;5053280;28;20049;-51
2021/06/10 06:45:22;;;;;;;7.88;4.57;;;;;;;19.91;47.31;101994.25;5052981;28;20037;-51
2021/06/10 06:47:49;;;;;;;9.35;5.00;;;;;;;19.95;47.56;102002.78;5049971;28;20076;-51
2021/06/10 06:50:17;;;;;;;12.10;5.72;;;;;;;19.96;48.16;102002.50;5051032;28;20090;-51
2021/06/10 06:52:45;;;;;;;14.25;5.68;;;;;;;20.00;48.41;102000.75;5052522;28;20441;-52
2021/06/10 06:55:13;;;;;;;17.20;6.78;;;;;;;20.06;48.73;102006.19;5052761;28;20072;-50
2021/06/10 06:57:41;;;;;;;17.20;9.68;;;;;;;20.09;48.67;101997.31;5052287;28;20040;-52
2021/06/10 07:00:09;;;;;;;9.10;4.75;;;;;;;20.22;49.24;102007.56;5052252;28;20102;-50
2021/06/10 07:02:36;;;;;;;8.48;4.85;;;;;;;20.31;48.83;101996.63;5052321;28;20037;-51
2021/06/10 07:05:07;;;;;;;12.40;6.63;;;;;;;20.28;49.01;101994.47;5052328;28;20087;-53
2021/06/10 07:07:34;;;;;;;10.73;5.10;;;;;;;20.32;49.03;101996.31;5040594;28;20053;-49
2021/06/10 07:10:04;;;;;;;14.15;7.63;;;;;;;20.31;49.24;102000.22;5049516;28;20507;-52
2021/06/10 07:12:32;;;;;;;11.57;5.13;;;;;;;20.30;49.35;101993.03;5052683;28;20053;-51
2021/06/10 07:14:59;;;;;;;12.38;6.22;;;;;;;20.27;49.34;101993.63;5051708;28;20075;-49
2021/06/10 07:17:29;;;;;;;18.90;8.18;;;;;;;20.29;49.55;102005.22;5052278;28;20090;-50
2021/06/10 07:20:00;;;;;;;12.02;7.63;;;;;;;20.26;49.97;102008.59;5052296;28;20056;-54
2021/06/10 07:22:38;;;;;;;13.07;7.55;;;;;;;20.26;50.04;102013.31;5052020;28;20041;-51
2021/06/10 07:25:07;;;;;;;14.20;7.65;;;;;;;20.26;50.10;102003.06;5051929;28;20080;-52
2021/06/10 07:27:35;;;;;;;12.93;7.68;;;;;;;20.27;50.46;102010.25;5052235;28;20041;-50
2021/06/10 07:30:07;;;;;;;15.98;7.28;;;;;;;20.37;50.05;102007.31;5051822;28;20107;-55
2021/06/10 07:32:34;;;;;;;12.85;7.22;;;;;;;20.39;50.37;102016.09;5052227;28;20072;-56
2021/06/10 07:35:03;;;;;;;12.73;5.68;;;;;;;20.39;49.17;102020.81;5052359;28;20049;-55
2021/06/10 07:37:31;;;;;;;33.22;10.40;;;;;;;20.45;49.16;102016.84;5051722;28;20126;-52
2021/06/10 07:39:58;;;;;;;22.67;8.27;;;;;;;20.51;49.14;102014.78;5051983;28;20043;-52
2021/06/10 07:42:27;;;;;;;20.92;8.25;;;;;;;20.61;49.40;102020.16;5052411;28;20099;-53
2021/06/10 07:44:54;;;;;;;21.52;7.70;;;;;;;20.68;49.28;102014.22;5051467;28;20025;-53
2021/06/10 07:47:22;;;;;;;24.27;6.93;;;;;;;20.74;49.03;102015.75;5051958;28;20052;-53
2021/06/10 07:49:50;;;;;;;14.68;6.05;;;;;;;20.75;48.59;102014.63;5067080;28;20056;-50
2021/06/10 07:52:18;;;;;;;13.40;5.72;;;;;;;20.79;48.45;102010.94;5050382;28;20048;-52
2021/06/10 07:54:45;;;;;;;10.80;4.93;;;;;;;20.84;48.44;102016.34;5050591;28;20049;-54
2021/06/10 07:57:14;;;;;;;14.35;4.60;;;;;;;20.87;48.74;102019.66;5052155;28;20037;-53
2021/06/10 07:59:42;;;;;;;12.75;6.68;;;;;;;20.94;48.93;102028.38;5048093;28;20053;-51
2021/06/10 08:02:11;;;;;;;16.15;5.78;;;;;;;20.94;49.82;102022.81;5052159;28;20095;-53
2021/06/10 08:04:38;;;;;;;11.60;7.28;;;;;;;20.93;49.40;102016.47;5051809;28;20037;-49
2021/06/10 08:07:06;;;;;;;11.88;6.70;;;;;;;20.93;49.75;102024.78;5046749;28;20057;-50
2021/06/10 08:09:34;;;;;;;13.63;4.88;;;;;;;21.05;48.96;102027.03;5044804;28;20079;-49
2021/06/10 08:12:02;;;;;;;9.75;4.75;;;;;;;21.06;49.13;102025.88;5051505;28;20041;-50
2021/06/10 08:14:30;;;;;;;8.00;4.32;;;;;;;21.14;49.31;102027.09;5051388;28;20106;-50
2021/06/10 08:16:57;;;;;;;12.57;8.10;;;;;;;21.12;49.68;102034.91;5052323;28;20091;-53
2021/06/10 08:19:25;;;;;;;8.38;3.80;;;;;;;21.11;49.94;102024.97;5051845;28;20553;-52
2021/06/10 08:21:53;;;;;;;11.43;5.00;;;;;;;21.14;48.86;102027.94;5050215;28;20470;-53
2021/06/10 08:24:21;;;;;;;11.25;6.97;;;;;;;21.17;48.12;102021.78;5051947;28;20041;-51
2021/06/10 08:26:49;;;;;;;13.82;7.10;;;;;;;21.17;47.93;102021.78;5051503;28;20040;-50
2021/06/10 08:29:16;;;;;;;8.77;5.28;;;;;;;21.21;48.40;102022.81;5046435;28;20041;-48
2021/06/10 08:31:44;;;;;;;11.63;4.68;;;;;;;21.24;49.07;102016.63;5050986;28;20052;-50
2021/06/10 08:34:12;;;;;;;10.32;5.93;;;;;;;21.28;49.28;102014.03;5051277;28;20057;-51
2021/06/10 08:36:40;;;;;;;11.68;7.97;;;;;;;21.31;48.12;102009.81;5051664;28;20041;-53
2021/06/10 08:39:08;;;;;;;7.75;3.70;;;;;;;21.34;49.42;102009.22;5054531;28;20045;-53
2021/06/10 08:41:36;;;;;;;13.15;6.10;;;;;;;21.41;48.59;102012.41;5054948;28;20056;-52
2021/06/10 08:44:04;;;;;;;14.10;6.72;;;;;;;21.49;48.36;102008.88;5069528;28;20052;-49
2021/06/10 08:46:35;;;;;;;7.97;4.35;;;;;;;21.51;48.68;102006.63;5053019;28;20087;-50
2021/06/10 08:49:05;;;;;;;12.95;8.65;;;;;;;21.51;48.52;102014.94;5053794;28;20107;-49
2021/06/10 08:51:33;;;;;;;12.35;6.70;;;;;;;21.60;48.85;102017.75;5054907;28;20065;-51
2021/06/10 08:54:01;;;;;;;6.95;3.78;;;;;;;21.61;48.53;102020.22;5055044;28;20557;-49
2021/06/10 08:56:31;;;;;;;9.07;5.07;;;;;;;21.61;48.35;102023.00;5055178;28;20064;-51
2021/06/10 08:58:59;;;;;;;12.85;6.93;;;;;;;21.63;48.81;102020.75;5055327;28;20049;-50
2021/06/10 09:01:29;;;;;;;9.30;6.25;;;;;;;21.63;48.86;102023.53;5054735;28;20057;-46
2021/06/10 09:03:56;;;;;;;11.52;6.88;;;;;;;21.67;48.72;102021.75;5053740;28;20053;-48
2021/06/10 09:06:24;;;;;;;6.72;3.38;;;;;;;21.69;48.76;102022.28;5054464;28;20569;-48
2021/06/10 09:08:56;;;;;;;13.15;8.00;;;;;;;21.70;48.50;102023.91;5055004;28;20044;-49
2021/06/10 09:11:26;;;;;;;10.25;6.72;;;;;;;21.70;48.43;102015.59;5054067;28;20492;-47
2021/06/10 09:13:58;;;;;;;18.83;9.85;;;;;;;21.75;48.93;102016.59;5053792;28;20063;-50
2021/06/10 09:16:37;;;;;;;14.43;8.43;;;;;;;21.80;48.49;102022.03;5055077;28;20044;-53
2021/06/10 09:19:16;;;;;;;18.25;8.95;;;;;;;21.85;48.55;102024.66;5054535;28;20459;-48
2021/06/10 09:21:55;;;;;;;11.68;6.93;;;;;;;21.91;47.20;102023.38;5050724;28;20128;-48
2021/06/10 09:24:33;;;;;;;10.00;6.78;;;;;;;21.94;46.50;102028.31;5053672;28;20052;-53
2021/06/10 09:27:05;;;;;;;11.90;8.98;;;;;;;22.00;47.76;102020.69;5054227;28;20049;-50
2021/06/10 09:29:44;;;;;;;14.52;8.50;;;;;;;22.04;47.28;102028.06;5054584;28;20099;-48
2021/06/10 09:32:26;;;;;;;10.38;6.45;;;;;;;22.07;45.32;102032.97;5054489;28;20060;-52
2021/06/10 09:34:58;;;;;;;10.23;6.00;;;;;;;22.10;45.74;102021.25;5041719;28;20060;-50
2021/06/10 09:37:31;;;;;;;11.15;6.30;;;;;;;22.17;46.51;102019.97;5054218;28;20051;-50
2021/06/10 09:40:10;;;;;;;13.55;8.48;;;;;;;22.22;46.98;102025.41;5054073;28;20102;-51
2021/06/10 09:42:42;;;;;;;15.10;9.00;;;;;;;22.26;46.47;102032.78;5054285;28;20049;-52
2021/06/10 09:45:19;;;;;;;11.32;7.18;;;;;;;22.27;46.26;102028.06;5054269;28;20460;-52
2021/06/10 09:47:51;;;;;;;9.63;3.38;;;;;;;22.25;47.28;102024.81;5054356;28;20040;-50
2021/06/10 09:50:29;;;;;;;14.98;7.25;;;;;;;22.25;46.39;102022.03;5054902;28;20072;-53
2021/06/10 09:52:59;;;;;;;9.77;5.93;;;;;;;22.27;46.26;102019.72;5055748;28;20037;-50
2021/06/10 09:55:55;;;;;;;10.90;6.20;;;;;;;22.32;46.11;102022.34;5055530;28;20446;-49
2021/06/10 09:58:41;;;;;;;9.68;5.80;;;;;;;22.36;43.62;102017.81;5012442;28;20058;-52
2021/06/10 10:01:14;;;;;;;9.20;5.50;;;;;;;22.38;43.08;102026.66;5012416;28;20065;-55
2021/06/10 10:03:45;;;;;;;11.32;7.35;;;;;;;22.45;44.25;102027.00;5012170;28;20057;-50
2021/06/10 10:06:21;;;;;;;10.77;7.03;;;;;;;22.47;43.12;102024.75;5012088;28;20440;-52
2021/06/10 10:08:54;;;;;;;9.75;5.80;;;;;;;22.47;41.88;102035.03;5011163;28;20049;-51
2021/06/10 10:11:23;;;;;;;9.43;5.22;;;;;;;22.47;40.83;102038.63;5011486;28;20034;-51
2021/06/10 10:13:54;;;;;;;10.50;5.90;;;;;;;22.48;41.12;102037.47;5011465;28;20050;-52
2021/06/10 10:16:24;;;;;;;12.88;5.53;;;;;;;22.47;41.80;102035.03;5011482;28;20049;-51
2021/06/10 10:18:53;;;;;;;10.50;7.53;;;;;;;22.48;43.06;102025.56;4992825;28;20059;-51
2021/06/10 10:21:28;;;;;;;10.07;6.50;;;;;;;22.49;43.95;102021.66;5011546;28;20049;-47
2021/06/10 10:24:04;;;;;;;15.95;8.88;;;;;;;22.50;43.87;102018.53;5011254;28;20100;-52
2021/06/10 10:26:32;;;;;;;15.80;7.88;;;;;;;22.52;44.29;102023.78;5011671;28;20041;-52
2021/06/10 10:29:03;;;;;;;12.38;7.70;;;;;;;22.55;43.92;102015.59;5011306;28;20045;-52
2021/06/10 10:31:33;;;;;;;12.65;6.47;;;;;;;22.57;44.02;102015.31;4991979;28;20042;-51
2021/06/10 10:34:00;;;;;;;9.63;6.00;;;;;;;22.59;43.37;102015.00;4989451;28;20057;-54
2021/06/10 10:36:41;;;;;;;8.98;5.28;;;;;;;22.65;42.92;102019.25;5049901;28;20496;-51
2021/06/10 10:39:10;;;;;;;9.68;5.15;;;;;;;22.66;42.88;102016.16;5052621;28;20091;-49
2021/06/10 10:41:59;;;;;;;9.32;7.00;;;;;;;22.71;42.60;102012.41;5053463;28;20099;-52
2021/06/10 10:44:30;;;;;;;11.88;7.10;;;;;;;22.76;42.65;102010.31;5054936;28;20155;-51
2021/06/10 10:47:06;;;;;;;9.85;6.75;;;;;;;22.81;41.95;102006.56;5055959;28;20073;-53
2021/06/10 10:49:41;;;;;;;;;;;;;;;22.82;41.75;102016.53;5057665;28;20049;-50
2021/06/10 10:52:14;;;;;;;11.07;5.90;;;;;;;22.81;41.98;102014.09;5055401;28;19920;-51
2021/06/10 10:54:49;;;;;;;6.57;3.92;;;;;;;22.80;44.07;102009.66;5052888;28;20315;-48
2021/06/10 10:57:35;;;;;;;11.25;4.85;;;;;;;22.81;45.79;102012.13;5052552;28;20045;-50
2021/06/10 11:00:09;;;;;;;9.07;6.70;;;;;;;22.90;41.46;102006.59;4490900;28;10000758;-52
2021/06/10 11:02:40;;;;;;;13.43;7.68;;;;;;;22.96;40.85;102003.31;5050570;28;20589;-51
2021/06/10 11:05:11;;;;;;;9.90;6.57;;;;;;;22.99;40.36;102006.63;5065329;28;20438;-46
2021/06/10 11:07:39;;;;;;;11.00;6.85;;;;;;;23.03;41.12;102005.66;5050137;28;20049;-49
2021/06/10 11:10:17;;;;;;;12.90;7.13;;;;;;;23.06;39.94;102004.19;5050367;28;20061;-50
2021/06/10 11:12:51;;;;;;;11.98;6.50;;;;;;;23.05;39.43;102005.34;5037087;28;20076;-51
2021/06/10 11:15:23;;;;;;;9.80;5.35;;;;;;;23.02;39.19;102004.03;5049900;28;20048;-49
2021/06/10 11:17:59;;;;;;;9.75;4.70;;;;;;;23.02;38.31;101995.69;5050227;28;20042;-52
2021/06/10 11:20:36;;;;;;;11.75;6.35;;;;;;;23.02;38.91;101992.06;5050047;28;20048;-50
2021/06/10 11:23:17;;;;;;;11.88;6.10;;;;;;;23.03;40.00;101990.94;5049992;28;20063;-50
2021/06/10 11:25:50;;;;;;;10.75;6.00;;;;;;;23.07;43.02;101989.16;5049581;28;20045;-49
2021/06/10 11:28:22;;;;;;;13.93;9.23;;;;;;;23.15;41.85;101982.78;5050479;28;20037;-52
2021/06/10 11:30:53;;;;;;;10.45;6.97;;;;;;;23.14;41.64;101990.31;5049700;28;20427;-51
2021/06/10 11:33:24;;;;;;;11.43;8.00;;;;;;;23.17;41.58;101980.50;5064902;28;20033;-50